createdAt,value
2022-11-14T00:02:27.161Z,51.00
2022-11-14T00:05:49.378Z,49.90
2022-11-14T00:09:11.391Z,50.90
2022-11-14T00:12:32.936Z,49.77
2022-11-14T00:15:55.835Z,47.93
2022-11-14T00:19:17.998Z,47.07
2022-11-14T00:22:39.634Z,49.13
2022-11-14T00:26:01.194Z,50.70
2022-11-14T00:29:23.609Z,49.40
2022-11-14T00:32:46.641Z,49.23
2022-11-14T00:36:08.891Z,51.87
2022-11-14T00:39:30.830Z,50.20
2022-11-14T00:42:57.155Z,49.10
2022-11-14T00:46:19.418Z,51.07
2022-11-14T00:49:42.731Z,53.50
2022-11-14T00:53:04.093Z,50.90
2022-11-14T00:56:26.071Z,51.07
2022-11-14T00:59:47.551Z,54.80
2022-11-14T01:03:09.146Z,49.70
2022-11-14T01:06:32.331Z,52.30
2022-11-14T01:09:56.180Z,54.33
2022-11-14T01:13:19.442Z,53.20
2022-11-14T01:16:40.876Z,52.90
2022-11-14T01:20:03.149Z,55.33
2022-11-14T01:23:26.268Z,51.37
2022-11-14T01:26:48.381Z,52.70
2022-11-14T01:30:11.014Z,54.20
2022-11-14T01:33:33.120Z,53.97
2022-11-14T01:36:57.052Z,53.03
2022-11-14T01:40:20.335Z,52.63
2022-11-14T01:43:43.031Z,51.23
2022-11-14T01:47:05.815Z,52.50
2022-11-14T01:50:29.218Z,51.40
2022-11-14T01:53:56.441Z,51.47
2022-11-14T01:57:24.279Z,54.77
2022-11-14T02:00:45.848Z,56.60
2022-11-14T02:04:12.788Z,54.53
2022-11-14T02:07:40.655Z,56.33
2022-11-14T02:11:02.699Z,55.90
2022-11-14T02:14:25.618Z,56.10
2022-11-14T02:17:47.024Z,55.93
2022-11-14T02:21:11.402Z,56.60
2022-11-14T02:24:33.162Z,58.30
2022-11-14T02:27:58.053Z,54.57
2022-11-14T02:31:20.079Z,52.40
2022-11-14T02:35:22.529Z,55.60
2022-11-14T02:38:45.590Z,55.63
2022-11-14T02:42:07.392Z,53.70
2022-11-14T02:45:31.936Z,53.37
2022-11-14T02:48:53.289Z,52.93
2022-11-14T02:52:18.589Z,50.27
2022-11-14T02:55:41.691Z,52.73
2022-11-14T02:59:03.203Z,50.60
2022-11-14T03:02:24.821Z,50.77
2022-11-14T03:05:46.422Z,47.67
2022-11-14T03:09:08.406Z,51.23
2022-11-14T03:12:31.304Z,51.63
2022-11-14T03:15:52.830Z,49.77
2022-11-14T03:19:14.828Z,49.00
2022-11-14T03:22:36.322Z,51.37
2022-11-14T03:26:02.104Z,49.90
2022-11-14T03:29:25.049Z,53.53
2022-11-14T03:32:46.876Z,52.43
2022-11-14T03:36:10.072Z,52.27
2022-11-14T03:39:32.580Z,51.70
2022-11-14T03:42:54.071Z,49.77
2022-11-14T03:46:16.995Z,49.93
2022-11-14T03:49:38.906Z,50.80
2022-11-14T03:53:01.156Z,52.90
2022-11-14T03:56:22.852Z,54.33
2022-11-14T03:59:45.026Z,53.73
2022-11-14T04:03:08.540Z,52.87
2022-11-14T04:06:30.288Z,49.63
2022-11-14T04:09:52.380Z,51.97
2022-11-14T04:13:13.803Z,50.67
2022-11-14T04:16:35.475Z,51.53
2022-11-14T04:19:58.819Z,52.33
2022-11-14T04:23:21.202Z,55.43
2022-11-14T04:26:42.659Z,53.23
2022-11-14T04:30:05.286Z,53.23
2022-11-14T04:33:26.886Z,52.57
2022-11-14T04:36:51.159Z,54.70
2022-11-14T04:40:13.233Z,54.20
2022-11-14T04:43:36.879Z,56.83
2022-11-14T04:46:58.420Z,56.50
2022-11-14T04:50:20.072Z,54.63
2022-11-14T04:53:42.999Z,57.93
2022-11-14T04:57:04.789Z,55.93
2022-11-14T05:00:30.221Z,54.17
2022-11-14T05:03:52.167Z,53.03
2022-11-14T05:07:14.231Z,54.27
2022-11-14T05:10:37.281Z,55.50
2022-11-14T05:13:58.918Z,53.67
2022-11-14T05:17:20.692Z,52.30
2022-11-14T05:20:42.257Z,54.67
2022-11-14T05:24:04.069Z,55.33
2022-11-14T05:27:27.362Z,54.27
2022-11-14T05:30:49.043Z,53.17
2022-11-14T05:34:11.019Z,54.73
2022-11-14T05:37:32.787Z,51.93
2022-11-14T05:40:54.390Z,52.20
2022-11-14T05:44:17.429Z,52.73
2022-11-14T05:47:39.343Z,54.27
2022-11-14T05:51:04.916Z,51.93
2022-11-14T05:54:26.507Z,53.07
2022-11-14T05:57:48.535Z,54.20
2022-11-14T06:01:13.928Z,52.03
2022-11-14T06:04:35.490Z,50.37
2022-11-14T06:07:57.714Z,52.07
2022-11-14T06:11:21.284Z,53.10
2022-11-14T06:14:43.272Z,51.13
2022-11-14T06:18:06.259Z,53.20
2022-11-14T06:21:28.012Z,54.47
2022-11-14T06:24:49.756Z,52.77
2022-11-14T06:28:11.360Z,52.57
2022-11-14T06:31:33.161Z,52.37
2022-11-14T06:34:56.113Z,53.70
2022-11-14T06:38:18.068Z,53.47
2022-11-14T06:41:41.968Z,52.90
2022-11-14T06:45:03.735Z,54.50
2022-11-14T06:48:26.076Z,52.70
2022-11-14T06:51:48.867Z,52.87
2022-11-14T06:55:10.779Z,53.20
2022-11-14T06:58:35.521Z,51.53
2022-11-14T07:01:57.484Z,52.00
2022-11-14T07:05:19.426Z,51.80
2022-11-14T07:08:42.529Z,53.57
2022-11-14T07:12:06.984Z,51.77
2022-11-14T07:15:29.431Z,51.07
2022-11-14T07:18:50.901Z,51.13
2022-11-14T07:22:12.756Z,50.87
2022-11-14T07:25:35.742Z,49.60
2022-11-14T07:29:02.104Z,51.67
2022-11-14T07:32:24.538Z,51.10
2022-11-14T07:35:45.969Z,51.10
2022-11-14T07:39:07.980Z,55.40
2022-11-14T07:42:31.356Z,52.50
2022-11-14T07:45:53.367Z,50.60
2022-11-14T07:49:14.833Z,49.27
2022-11-14T07:52:36.787Z,51.23
2022-11-14T07:56:02.546Z,50.07
2022-11-14T07:59:25.343Z,50.27
2022-11-14T08:02:47.292Z,51.70
2022-11-14T08:06:13.310Z,51.90
2022-11-14T08:09:35.272Z,50.53
2022-11-14T08:13:25.283Z,48.70
2022-11-14T08:16:43.933Z,52.77
2022-11-14T08:20:07.875Z,47.63
2022-11-14T08:23:29.234Z,50.07
2022-11-14T08:26:51.195Z,50.90
2022-11-14T08:30:14.479Z,50.57
2022-11-14T08:33:37.783Z,48.70
2022-11-14T08:36:59.698Z,49.67
2022-11-14T08:40:21.187Z,48.47
2022-11-14T08:43:43.053Z,48.10
2022-11-14T08:47:05.152Z,47.83
2022-11-14T08:50:28.332Z,45.20
2022-11-14T08:53:51.498Z,45.10
2022-11-14T08:57:15.250Z,41.50
2022-11-14T09:00:37.027Z,42.07
2022-11-14T09:03:59.966Z,43.20
2022-11-14T09:07:23.393Z,42.87
2022-11-14T09:10:45.201Z,43.43
2022-11-14T09:14:06.715Z,42.57
2022-11-14T09:17:28.195Z,43.90
2022-11-14T09:20:49.673Z,43.10
2022-11-14T09:24:12.707Z,44.70
2022-11-14T09:27:34.376Z,41.60
2022-11-14T09:31:01.999Z,42.60
2022-11-14T09:34:23.683Z,42.70
2022-11-14T09:37:45.083Z,42.67
2022-11-14T09:41:24.869Z,40.73
2022-11-14T09:44:55.263Z,38.37
2022-11-14T09:48:21.333Z,37.70
2022-11-14T09:51:52.049Z,37.63
2022-11-14T09:55:18.972Z,37.57
2022-11-14T09:58:43.474Z,38.27
2022-11-14T10:02:32.665Z,39.23
2022-11-14T10:06:13.717Z,39.30
2022-11-14T10:09:52.574Z,38.70
2022-11-14T10:13:39.324Z,38.83
2022-11-14T10:17:21.090Z,43.73
2022-11-14T10:20:48.885Z,39.27
2022-11-14T10:24:32.334Z,35.23
2022-11-14T10:28:16.841Z,37.60
2022-11-14T10:31:50.122Z,36.07
2022-11-14T10:35:17.463Z,35.50
2022-11-14T10:38:44.945Z,36.90
2022-11-14T10:42:15.686Z,38.13
2022-11-14T10:45:44.545Z,36.27
2022-11-14T10:49:17.162Z,38.70
2022-11-14T10:52:44.040Z,36.13
2022-11-14T10:56:06.098Z,34.97
2022-11-14T10:59:28.096Z,35.03
2022-11-14T11:02:53.647Z,34.13
2022-11-14T11:06:27.374Z,32.80
2022-11-14T11:10:18.715Z,33.53
2022-11-14T11:13:51.877Z,32.40
2022-11-14T11:17:23.164Z,32.50
2022-11-14T11:20:44.707Z,32.43
2022-11-14T11:24:07.486Z,32.93
2022-11-14T11:27:31.469Z,32.63
2022-11-14T11:30:58.140Z,31.97
2022-11-14T11:34:25.988Z,33.27
2022-11-14T11:37:54.644Z,31.87
2022-11-14T11:45:17.547Z,33.23
2022-11-14T11:48:40.761Z,32.77
2022-11-14T11:52:06.939Z,34.37
2022-11-14T11:55:31.958Z,29.67
2022-11-14T11:59:01.340Z,29.20
2022-11-14T12:02:27.680Z,28.10
2022-11-14T12:06:04.654Z,27.87
2022-11-14T12:10:08.336Z,26.40
2022-11-14T12:13:46.488Z,25.60
2022-11-14T12:17:37.325Z,27.37
2022-11-14T12:21:36.577Z,26.97
2022-11-14T12:25:35.851Z,26.57
2022-11-14T12:29:17.962Z,26.70
2022-11-14T12:32:47.998Z,27.00
2022-11-14T12:36:12.775Z,25.70
2022-11-14T12:39:34.744Z,26.50
2022-11-14T12:42:57.747Z,25.40
2022-11-14T12:46:19.479Z,24.83
2022-11-14T12:50:06.659Z,27.43
2022-11-14T12:53:44.708Z,25.57
2022-11-14T12:57:11.198Z,27.70
2022-11-14T13:00:35.994Z,27.43
2022-11-14T13:04:17.776Z,25.77
2022-11-14T13:07:52.226Z,26.00
2022-11-14T13:11:55.316Z,26.27
2022-11-14T13:15:49.204Z,24.73
2022-11-14T13:19:39.680Z,25.60
2022-11-14T13:23:02.785Z,23.80
2022-11-14T13:26:55.106Z,23.73
2022-11-14T13:30:17.429Z,22.83
2022-11-14T13:33:42.783Z,22.43
2022-11-14T13:37:20.004Z,21.53
2022-11-14T13:40:53.618Z,21.23
2022-11-14T13:44:50.057Z,21.20
2022-11-14T13:48:44.812Z,21.77
2022-11-14T13:52:09.474Z,21.17
2022-11-14T13:55:39.907Z,21.73
2022-11-14T13:59:56.697Z,22.30
2022-11-14T14:03:38.298Z,20.73
2022-11-14T14:07:12.943Z,20.80
2022-11-14T14:10:44.207Z,21.50
2022-11-14T14:14:32.242Z,21.43
2022-11-14T14:18:09.570Z,20.27
2022-11-14T14:21:45.069Z,22.17
2022-11-14T14:25:24.022Z,21.00
2022-11-14T14:28:56.347Z,21.13
2022-11-14T14:32:21.525Z,21.50
2022-11-14T14:35:54.680Z,20.43
2022-11-14T14:39:19.968Z,22.53
2022-11-14T14:42:47.213Z,22.00
2022-11-14T14:46:13.823Z,22.07
2022-11-14T14:49:38.133Z,22.27
2022-11-14T14:53:05.134Z,22.30
2022-11-14T14:56:30.461Z,23.27
2022-11-14T15:00:00.963Z,21.93
2022-11-14T15:03:23.835Z,23.10
2022-11-14T15:06:48.202Z,23.67
2022-11-14T15:10:24.456Z,23.43
2022-11-14T15:13:48.148Z,24.60
2022-11-14T15:17:11.610Z,26.27
2022-11-14T15:20:33.292Z,27.13
2022-11-14T15:24:03.724Z,26.27
2022-11-14T15:27:26.390Z,26.83
2022-11-14T15:30:59.235Z,27.67
2022-11-14T15:34:30.692Z,27.37
2022-11-14T15:38:28.895Z,29.00
2022-11-14T15:41:45.309Z,26.80
2022-11-14T15:48:35.647Z,26.37
2022-11-14T15:51:59.848Z,26.20
2022-11-14T15:55:24.045Z,27.30
2022-11-14T15:58:49.312Z,28.20
2022-11-14T16:02:17.541Z,28.50
2022-11-14T16:05:40.463Z,30.57
2022-11-14T16:09:02.056Z,27.33
2022-11-14T16:12:23.838Z,29.77
2022-11-14T16:15:45.616Z,29.60
2022-11-14T16:19:08.112Z,29.30
2022-11-14T16:22:31.335Z,28.57
2022-11-14T16:25:53.394Z,28.43
2022-11-14T16:29:16.472Z,28.73
2022-11-14T16:32:38.781Z,27.77
2022-11-14T16:36:00.657Z,27.93
2022-11-14T16:39:24.022Z,27.73
2022-11-14T16:42:46.293Z,29.63
2022-11-14T16:46:09.098Z,30.57
2022-11-14T16:49:33.002Z,29.27
2022-11-14T16:52:55.187Z,33.60
2022-11-14T16:56:18.264Z,32.60
2022-11-14T16:59:39.980Z,32.13
2022-11-14T17:03:01.738Z,31.37
2022-11-14T17:06:23.726Z,32.13
2022-11-14T17:09:45.566Z,30.57
2022-11-14T17:13:09.022Z,30.63
2022-11-14T17:16:30.780Z,30.77
2022-11-14T17:19:52.996Z,31.27
2022-11-14T17:23:14.647Z,32.50
2022-11-14T17:26:36.665Z,31.70
2022-11-14T17:29:59.647Z,32.43
2022-11-14T17:33:21.130Z,31.30
2022-11-14T17:36:43.166Z,32.50
2022-11-14T17:40:05.944Z,32.60
2022-11-14T17:43:34.312Z,31.93
2022-11-14T17:47:00.104Z,30.67
2022-11-14T17:50:21.816Z,31.77
2022-11-14T17:53:43.991Z,31.70
2022-11-14T17:57:05.829Z,32.43
2022-11-14T18:00:27.267Z,32.60
2022-11-14T18:03:50.602Z,32.37
2022-11-14T18:07:12.239Z,30.30
2022-11-14T18:10:34.149Z,30.83
2022-11-14T18:13:56.472Z,31.53
2022-11-14T18:17:18.102Z,32.17
2022-11-14T18:20:41.269Z,31.43
2022-11-14T18:24:03.045Z,32.33
2022-11-14T18:27:27.506Z,34.67
2022-11-14T18:30:55.683Z,35.50
2022-11-14T18:34:17.736Z,33.07
2022-11-14T18:37:40.634Z,34.17
2022-11-14T18:41:04.296Z,34.83
2022-11-14T18:44:25.799Z,31.73
2022-11-14T18:47:47.810Z,31.07
2022-11-14T18:51:13.642Z,33.33
2022-11-14T18:54:36.531Z,30.37
2022-11-14T18:57:58.561Z,31.13
2022-11-14T19:01:24.861Z,32.53
2022-11-14T19:04:46.728Z,32.80
2022-11-14T19:08:08.907Z,34.13
2022-11-14T19:11:50.271Z,32.50
2022-11-14T19:15:12.105Z,35.87
2022-11-14T19:18:34.158Z,33.50
2022-11-14T19:21:59.201Z,34.10
2022-11-14T19:25:20.782Z,35.70
2022-11-14T19:28:44.641Z,33.97
2022-11-14T19:32:09.620Z,36.27
2022-11-14T19:35:31.418Z,34.10
2022-11-14T19:38:55.755Z,34.83
2022-11-14T19:42:17.577Z,34.07
2022-11-14T19:45:41.273Z,34.20
2022-11-14T19:49:03.878Z,33.43
2022-11-14T19:52:26.109Z,32.40
2022-11-14T19:55:47.705Z,32.57
2022-11-14T19:59:14.772Z,31.70
2022-11-14T20:02:40.476Z,33.03
2022-11-14T20:06:02.540Z,34.27
2022-11-14T20:09:24.328Z,33.67
2022-11-14T20:12:46.207Z,33.87
2022-11-14T20:16:20.104Z,35.83
2022-11-14T20:19:42.819Z,35.00
2022-11-14T20:23:06.152Z,36.07
2022-11-14T20:26:27.838Z,35.97
2022-11-14T20:29:49.606Z,33.43
2022-11-14T20:33:11.755Z,33.13
2022-11-14T20:36:56.492Z,32.17
2022-11-14T20:40:16.834Z,33.43
2022-11-14T20:43:38.960Z,35.00
2022-11-14T20:47:00.755Z,33.93
2022-11-14T20:50:22.468Z,35.23
2022-11-14T20:53:46.085Z,36.83
2022-11-14T20:57:07.897Z,36.00
2022-11-14T21:00:29.449Z,34.77
2022-11-14T21:03:51.100Z,35.43
2022-11-14T21:07:12.621Z,35.90
2022-11-14T21:10:47.766Z,37.23
2022-11-14T21:14:11.714Z,35.73
2022-11-14T21:17:33.250Z,36.53
2022-11-14T21:21:04.082Z,37.90
2022-11-14T21:24:25.672Z,37.57
2022-11-14T21:27:48.354Z,36.10
2022-11-14T21:31:19.024Z,36.17
2022-11-14T21:34:41.156Z,35.00
2022-11-14T21:38:03.021Z,35.63
2022-11-14T21:41:28.138Z,36.37
2022-11-14T21:44:51.602Z,36.70
2022-11-14T21:48:13.468Z,36.47
2022-11-14T21:51:35.239Z,36.87
2022-11-14T21:54:56.956Z,36.80
2022-11-14T21:58:18.751Z,37.07
2022-11-14T22:02:01.655Z,36.80
2022-11-14T22:05:23.418Z,37.60
2022-11-14T22:08:45.387Z,37.63
2022-11-14T22:12:08.626Z,35.90
2022-11-14T22:15:30.301Z,37.23
2022-11-14T22:18:55.714Z,36.33
2022-11-14T22:22:19.865Z,34.97
2022-11-14T22:25:41.519Z,37.87
2022-11-14T22:29:03.234Z,33.77
2022-11-14T22:32:24.789Z,36.37
2022-11-14T22:35:48.491Z,35.10
2022-11-14T22:39:10.220Z,33.60
2022-11-14T22:42:31.851Z,37.77
2022-11-14T22:45:54.175Z,33.90
2022-11-14T22:49:20.698Z,34.83
2022-11-14T22:52:44.233Z,40.13
2022-11-14T22:56:11.629Z,34.63
2022-11-14T22:59:33.517Z,37.03
2022-11-14T23:02:55.258Z,37.67
2022-11-14T23:06:19.826Z,34.77
2022-11-14T23:09:43.968Z,34.53
2022-11-14T23:13:07.113Z,34.83
2022-11-14T23:16:31.361Z,34.33
2022-11-14T23:19:52.698Z,34.93
2022-11-14T23:23:15.728Z,35.53
2022-11-14T23:26:38.822Z,37.23
2022-11-14T23:30:00.761Z,36.10
2022-11-14T23:33:22.481Z,35.93
2022-11-14T23:36:43.979Z,39.40
2022-11-14T23:40:07.122Z,36.67
2022-11-14T23:43:31.678Z,36.10
2022-11-14T23:46:53.592Z,35.30
2022-11-14T23:50:16.131Z,35.80
2022-11-14T23:53:38.205Z,37.07
2022-11-14T23:57:04.081Z,35.60
